createdAt,value
2018-01-26T00:01:41.829Z,10.43
2018-01-26T00:04:09.775Z,10.17
2018-01-26T00:06:37.714Z,9.93
2018-01-26T00:09:05.673Z,10.53
2018-01-26T00:11:33.632Z,9.30
2018-01-26T00:14:01.598Z,10.20
2018-01-26T00:16:29.517Z,10.23
2018-01-26T00:18:57.466Z,8.60
2018-01-26T00:21:25.403Z,10.10
2018-01-26T00:23:53.338Z,9.70
2018-01-26T00:26:21.274Z,10.83
2018-01-26T00:28:49.242Z,9.20
2018-01-26T00:31:17.270Z,9.40
2018-01-26T00:33:45.219Z,9.97
2018-01-26T00:36:13.145Z,10.67
2018-01-26T00:38:41.097Z,9.80
2018-01-26T00:41:09.857Z,12.50
2018-01-26T00:43:37.776Z,10.03
2018-01-26T00:46:05.820Z,9.70
2018-01-26T00:48:34.345Z,8.73
2018-01-26T00:51:02.298Z,10.03
2018-01-26T00:53:30.238Z,10.47
2018-01-26T00:55:58.196Z,10.70
2018-01-26T00:58:26.206Z,11.47
2018-01-26T01:00:54.278Z,11.67
2018-01-26T01:03:22.274Z,11.97
2018-01-26T01:05:50.219Z,9.83
2018-01-26T01:08:18.209Z,10.07
2018-01-26T01:10:46.158Z,10.70
2018-01-26T01:13:14.084Z,9.20
2018-01-26T01:15:42.069Z,13.87
2018-01-26T01:18:10.031Z,10.30
2018-01-26T01:20:37.981Z,12.37
2018-01-26T01:23:05.905Z,13.17
2018-01-26T01:25:33.825Z,12.40
2018-01-26T01:28:01.786Z,12.10
2018-01-26T01:30:29.732Z,11.77
2018-01-26T01:32:57.662Z,12.17
2018-01-26T01:35:25.597Z,12.20
2018-01-26T01:37:53.522Z,10.80
2018-01-26T01:40:21.460Z,11.57
2018-01-26T01:42:49.402Z,10.97
2018-01-26T01:45:17.397Z,11.40
2018-01-26T01:47:45.383Z,10.90
2018-01-26T01:50:13.301Z,10.23
2018-01-26T01:52:41.241Z,11.47
2018-01-26T01:55:09.159Z,11.27
2018-01-26T01:57:37.127Z,11.60
2018-01-26T02:00:05.077Z,10.83
2018-01-26T02:02:33.843Z,10.80
2018-01-26T02:05:01.786Z,11.70
2018-01-26T02:07:29.729Z,11.93
2018-01-26T02:09:57.637Z,12.53
2018-01-26T02:12:25.562Z,12.90
2018-01-26T02:14:53.477Z,12.10
2018-01-26T02:17:21.430Z,12.87
2018-01-26T02:19:49.374Z,10.57
2018-01-26T02:22:17.305Z,12.33
2018-01-26T02:24:45.234Z,13.53
2018-01-26T02:27:13.640Z,11.77
2018-01-26T02:29:41.613Z,12.00
2018-01-26T02:32:09.551Z,12.20
2018-01-26T02:34:37.509Z,11.77
2018-01-26T02:37:05.437Z,11.87
2018-01-26T02:39:33.460Z,11.83
2018-01-26T02:42:01.395Z,12.80
2018-01-26T02:44:29.293Z,12.10
2018-01-26T02:46:57.230Z,11.50
2018-01-26T02:49:25.157Z,12.43
2018-01-26T02:51:53.080Z,13.93
2018-01-26T02:54:21.002Z,11.50
2018-01-26T02:56:49.007Z,13.43
2018-01-26T02:59:16.998Z,13.43
2018-01-26T03:01:44.967Z,11.43
2018-01-26T03:04:13.664Z,15.33
2018-01-26T03:06:41.609Z,13.50
2018-01-26T03:09:09.568Z,13.70
2018-01-26T03:11:37.503Z,13.50
2018-01-26T03:14:05.433Z,14.07
2018-01-26T03:16:34.049Z,13.83
2018-01-26T03:19:01.981Z,14.27
2018-01-26T03:21:29.922Z,13.97
2018-01-26T03:23:57.862Z,13.57
2018-01-26T03:26:25.921Z,15.17
2018-01-26T03:28:53.842Z,15.50
2018-01-26T03:31:21.772Z,14.93
2018-01-26T03:33:49.743Z,14.40
2018-01-26T03:36:17.980Z,16.10
2018-01-26T03:38:45.915Z,14.57
2018-01-26T03:41:13.860Z,15.70
2018-01-26T03:43:41.829Z,17.50
2018-01-26T03:46:09.752Z,15.57
2018-01-26T03:48:37.690Z,16.80
2018-01-26T03:51:05.611Z,16.27
2018-01-26T03:53:33.551Z,15.03
2018-01-26T03:56:01.501Z,17.00
2018-01-26T03:58:29.449Z,15.73
2018-01-26T04:00:57.387Z,18.00
2018-01-26T04:03:25.326Z,16.60
2018-01-26T04:05:53.258Z,17.10
2018-01-26T04:08:21.177Z,14.90
2018-01-26T04:10:49.107Z,16.20
2018-01-26T04:13:17.040Z,17.27
2018-01-26T04:15:44.980Z,15.97
2018-01-26T04:18:12.904Z,16.17
2018-01-26T04:23:15.010Z,16.30
2018-01-26T04:25:42.965Z,18.73
2018-01-26T04:28:10.917Z,17.07
2018-01-26T04:30:38.853Z,20.73
2018-01-26T04:33:06.833Z,19.23
2018-01-26T04:35:34.866Z,15.60
2018-01-26T04:38:02.801Z,16.30
2018-01-26T04:40:30.733Z,15.30
2018-01-26T04:42:58.693Z,17.37
2018-01-26T04:45:26.615Z,17.37
2018-01-26T04:47:54.559Z,17.60
2018-01-26T04:50:22.505Z,17.23
2018-01-26T04:52:50.725Z,17.20
2018-01-26T04:55:18.633Z,18.40
2018-01-26T04:57:46.698Z,19.43
2018-01-26T05:00:14.989Z,16.10
2018-01-26T05:02:43.014Z,16.13
2018-01-26T05:05:10.950Z,18.93
2018-01-26T05:07:38.905Z,16.17
2018-01-26T05:10:06.839Z,17.23
2018-01-26T05:12:34.794Z,17.33
2018-01-26T05:15:02.760Z,18.90
2018-01-26T05:17:30.885Z,16.93
2018-01-26T05:19:58.812Z,16.60
2018-01-26T05:22:26.847Z,17.27
2018-01-26T05:24:54.776Z,19.73
2018-01-26T05:27:22.740Z,17.80
2018-01-26T05:29:50.682Z,18.93
2018-01-26T05:32:18.606Z,19.17
2018-01-26T05:34:46.524Z,18.67
2018-01-26T05:37:14.645Z,18.60
2018-01-26T05:39:42.661Z,20.20
2018-01-26T05:42:10.659Z,18.97
2018-01-26T05:44:38.605Z,17.60
2018-01-26T05:47:06.530Z,19.60
2018-01-26T05:49:34.485Z,20.83
2018-01-26T05:52:02.405Z,16.87
2018-01-26T05:54:30.386Z,20.80
2018-01-26T05:56:58.313Z,19.13
2018-01-26T05:59:26.238Z,20.70
2018-01-26T06:01:54.179Z,22.13
2018-01-26T06:04:22.129Z,19.83
2018-01-26T06:06:50.049Z,22.17
2018-01-26T06:09:17.995Z,21.27
2018-01-26T06:11:45.961Z,20.33
2018-01-26T06:14:13.894Z,23.10
2018-01-26T06:16:41.928Z,20.70
2018-01-26T06:19:09.842Z,20.07
2018-01-26T06:21:37.755Z,22.30
2018-01-26T06:24:05.721Z,21.90
2018-01-26T06:26:34.351Z,21.50
2018-01-26T06:29:02.273Z,20.13
2018-01-26T06:31:30.202Z,22.77
2018-01-26T06:33:58.154Z,21.70
2018-01-26T06:36:26.063Z,20.43
2018-01-26T06:38:54.005Z,21.50
2018-01-26T06:41:22.045Z,21.40
2018-01-26T06:43:50.649Z,21.57
2018-01-26T06:46:18.577Z,24.27
2018-01-26T06:48:46.545Z,21.10
2018-01-26T06:51:14.445Z,23.90
2018-01-26T06:53:42.383Z,21.00
2018-01-26T06:56:10.322Z,22.57
2018-01-26T06:58:38.417Z,23.43
2018-01-26T07:01:06.421Z,21.80
2018-01-26T07:03:34.361Z,24.23
2018-01-26T07:06:02.301Z,22.40
2018-01-26T07:08:30.275Z,27.70
2018-01-26T07:10:58.186Z,24.00
2018-01-26T07:13:26.194Z,21.07
2018-01-26T07:15:54.130Z,23.20
2018-01-26T07:18:22.108Z,23.20
2018-01-26T07:20:50.020Z,21.60
2018-01-26T07:23:18.039Z,25.33
2018-01-26T07:25:45.985Z,23.80
2018-01-26T07:28:14.233Z,22.87
2018-01-26T07:30:42.229Z,25.30
2018-01-26T07:33:10.171Z,22.03
2018-01-26T07:35:38.139Z,22.43
2018-01-26T07:38:06.104Z,22.00
2018-01-26T07:40:34.115Z,22.80
2018-01-26T07:43:02.287Z,22.67
2018-01-26T07:45:30.223Z,23.83
2018-01-26T07:47:58.224Z,21.60
2018-01-26T07:50:26.363Z,22.33
2018-01-26T07:52:54.328Z,21.57
2018-01-26T07:55:22.305Z,17.90
2018-01-26T07:57:50.262Z,20.70
2018-01-26T08:00:18.272Z,20.73
2018-01-26T08:02:46.246Z,20.27
2018-01-26T08:05:14.185Z,19.67
2018-01-26T08:07:42.195Z,21.00
2018-01-26T08:10:10.133Z,20.23
2018-01-26T08:12:38.257Z,21.10
2018-01-26T08:15:06.055Z,20.70
2018-01-26T08:17:34.010Z,21.80
2018-01-26T08:20:02.037Z,21.53
2018-01-26T08:22:29.939Z,21.57
2018-01-26T08:24:58.050Z,19.60
2018-01-26T08:27:25.989Z,18.50
2018-01-26T08:29:53.907Z,22.97
2018-01-26T08:32:22.803Z,18.97
2018-01-26T08:34:50.736Z,19.07
2018-01-26T08:37:18.763Z,17.20
2018-01-26T08:39:46.712Z,20.07
2018-01-26T08:42:14.667Z,18.50
2018-01-26T08:44:42.595Z,21.00
2018-01-26T08:47:10.530Z,20.33
2018-01-26T08:49:38.457Z,22.40
2018-01-26T08:52:06.377Z,20.57
2018-01-26T08:54:34.321Z,19.93
2018-01-26T08:57:02.257Z,19.40
2018-01-26T08:59:30.484Z,19.67
2018-01-26T09:01:58.558Z,18.03
2018-01-26T09:04:26.496Z,20.70
2018-01-26T09:06:54.439Z,19.93
2018-01-26T09:09:22.362Z,18.13
2018-01-26T09:11:50.298Z,20.67
2018-01-26T09:14:18.237Z,17.53
2018-01-26T09:16:46.165Z,16.83
2018-01-26T09:19:14.077Z,17.90
2018-01-26T09:21:42.020Z,17.13
2018-01-26T09:24:09.946Z,17.37
2018-01-26T09:26:37.879Z,16.30
2018-01-26T09:29:05.838Z,16.70
2018-01-26T09:31:33.757Z,19.53
2018-01-26T09:34:01.744Z,17.97
2018-01-26T09:36:29.661Z,19.33
2018-01-26T09:38:57.706Z,18.73
2018-01-26T09:41:25.702Z,19.50
2018-01-26T09:43:53.624Z,19.90
2018-01-26T09:46:21.564Z,19.07
2018-01-26T09:48:49.493Z,20.07
2018-01-26T09:51:17.406Z,18.57
2018-01-26T09:53:45.360Z,20.23
2018-01-26T09:56:13.294Z,19.77
2018-01-26T09:58:41.240Z,18.87
2018-01-26T10:01:09.165Z,22.57
2018-01-26T10:03:37.100Z,21.10
2018-01-26T10:06:05.043Z,20.23
2018-01-26T10:08:32.982Z,19.97
2018-01-26T10:11:00.890Z,21.17
2018-01-26T10:13:28.822Z,19.27
2018-01-26T10:15:56.757Z,22.90
2018-01-26T10:18:24.718Z,21.97
2018-01-26T10:20:53.073Z,21.97
2018-01-26T10:23:21.012Z,21.80
2018-01-26T10:25:48.971Z,23.03
2018-01-26T10:28:16.928Z,21.00
2018-01-26T10:30:44.816Z,20.40
2018-01-26T10:33:12.758Z,21.20
2018-01-26T10:35:40.775Z,20.10
2018-01-26T10:38:08.730Z,20.47
2018-01-26T10:40:36.645Z,22.47
2018-01-26T10:43:04.593Z,23.23
2018-01-26T10:45:32.552Z,21.10
2018-01-26T10:48:00.478Z,22.23
2018-01-26T10:50:28.414Z,22.23
2018-01-26T10:52:56.334Z,23.33
2018-01-26T10:55:24.322Z,23.30
2018-01-26T10:57:52.418Z,24.83
2018-01-26T11:00:20.360Z,22.90
2018-01-26T11:02:48.310Z,24.20
2018-01-26T11:05:16.352Z,23.73
2018-01-26T11:07:44.266Z,25.83
2018-01-26T11:10:12.187Z,25.70
2018-01-26T11:12:40.132Z,23.70
2018-01-26T11:15:08.047Z,22.87
2018-01-26T11:17:35.995Z,23.90
2018-01-26T11:20:03.934Z,24.03
2018-01-26T11:22:31.862Z,25.30
2018-01-26T11:25:00.497Z,24.93
2018-01-26T11:27:28.478Z,26.43
2018-01-26T11:29:56.398Z,26.63
2018-01-26T11:32:24.351Z,29.73
2018-01-26T11:34:52.293Z,25.30
2018-01-26T11:37:20.220Z,25.60
2018-01-26T11:39:48.174Z,25.43
2018-01-26T11:42:16.085Z,23.63
2018-01-26T11:44:44.171Z,25.73
2018-01-26T11:47:12.210Z,24.77
2018-01-26T11:49:40.157Z,27.07
2018-01-26T11:52:08.079Z,25.27
2018-01-26T11:54:36.033Z,25.70
2018-01-26T11:57:03.962Z,27.67
2018-01-26T11:59:32.121Z,28.87
2018-01-26T12:02:00.084Z,28.23
2018-01-26T12:04:28.019Z,29.37
2018-01-26T12:06:55.941Z,27.17
2018-01-26T12:09:23.907Z,28.83
2018-01-26T12:11:51.862Z,29.07
2018-01-26T12:14:19.797Z,31.43
2018-01-26T12:16:47.733Z,28.23
2018-01-26T12:19:15.686Z,29.47
2018-01-26T12:21:43.842Z,29.07
2018-01-26T12:24:11.964Z,31.17
2018-01-26T12:26:39.854Z,32.37
2018-01-26T12:29:07.820Z,30.73
2018-01-26T12:31:35.765Z,32.30
2018-01-26T12:34:03.683Z,31.63
2018-01-26T12:36:31.624Z,33.10
2018-01-26T12:38:59.593Z,30.80
2018-01-26T12:41:27.517Z,31.00
2018-01-26T12:43:55.465Z,32.83
2018-01-26T12:46:23.469Z,29.60
2018-01-26T12:48:51.402Z,34.07
2018-01-26T12:51:19.343Z,34.10
2018-01-26T12:53:47.289Z,34.10
2018-01-26T12:56:15.226Z,34.40
2018-01-26T12:58:43.253Z,34.47
2018-01-26T13:01:11.178Z,33.57
2018-01-26T13:03:39.087Z,33.80
2018-01-26T13:06:07.032Z,35.70
2018-01-26T13:08:34.948Z,37.13
2018-01-26T13:11:02.878Z,37.00
2018-01-26T13:13:31.347Z,35.50
2018-01-26T13:15:59.275Z,34.27
2018-01-26T13:18:27.199Z,38.20
2018-01-26T13:20:55.144Z,38.83
2018-01-26T13:23:23.098Z,37.73
2018-01-26T13:25:51.005Z,35.70
2018-01-26T13:28:18.937Z,35.30
2018-01-26T13:30:46.988Z,37.17
2018-01-26T13:33:14.909Z,36.27
2018-01-26T13:35:42.854Z,38.70
2018-01-26T13:38:10.787Z,39.87
2018-01-26T13:40:38.775Z,37.67
2018-01-26T13:43:06.690Z,37.23
2018-01-26T13:45:34.598Z,36.93
2018-01-26T13:48:02.525Z,35.00
2018-01-26T13:50:30.458Z,38.37
2018-01-26T13:52:58.395Z,71.87
2018-01-26T13:55:26.411Z,102.07
2018-01-26T13:57:54.356Z,55.93
2018-01-26T14:00:22.354Z,40.83
2018-01-26T14:02:50.283Z,73.70
2018-01-26T14:05:18.258Z,66.37
2018-01-26T14:07:46.186Z,45.33
2018-01-26T14:10:14.125Z,63.57
2018-01-26T14:12:42.057Z,43.60
2018-01-26T14:15:10.042Z,34.17
2018-01-26T14:17:38.046Z,32.57
2018-01-26T14:20:05.985Z,32.07
2018-01-26T14:22:33.898Z,36.80
2018-01-26T14:25:01.917Z,35.53
2018-01-26T14:27:29.897Z,33.93
2018-01-26T14:29:57.874Z,35.43
2018-01-26T14:32:25.806Z,35.97
2018-01-26T14:34:53.755Z,33.57
2018-01-26T14:37:21.711Z,32.27
2018-01-26T14:39:49.669Z,31.97
2018-01-26T14:42:17.602Z,40.30
2018-01-26T14:44:45.551Z,45.10
2018-01-26T14:47:13.501Z,37.27
2018-01-26T14:49:41.458Z,51.20
2018-01-26T14:52:09.421Z,46.50
2018-01-26T14:54:37.331Z,84.43
2018-01-26T14:57:05.274Z,63.67
2018-01-26T14:59:33.227Z,70.63
2018-01-26T15:02:01.297Z,54.53
2018-01-26T15:04:29.246Z,51.10
2018-01-26T15:06:57.176Z,45.33
2018-01-26T15:09:25.103Z,36.40
2018-01-26T15:11:53.074Z,43.23
2018-01-26T15:14:20.986Z,43.50
2018-01-26T15:16:48.912Z,46.70
2018-01-26T15:19:16.841Z,38.30
2018-01-26T15:21:45.025Z,36.50
2018-01-26T15:24:12.961Z,40.87
2018-01-26T15:26:40.907Z,39.93
2018-01-26T15:29:09.687Z,36.60
2018-01-26T15:31:37.653Z,36.10
2018-01-26T15:34:05.559Z,38.80
2018-01-26T15:36:33.501Z,37.13
2018-01-26T15:39:01.457Z,40.07
2018-01-26T15:41:29.514Z,39.27
2018-01-26T15:43:57.446Z,41.50
2018-01-26T15:46:25.390Z,41.90
2018-01-26T15:48:53.350Z,41.17
2018-01-26T15:51:21.302Z,42.67
2018-01-26T15:53:49.270Z,45.70
2018-01-26T15:56:17.180Z,47.07
2018-01-26T15:58:45.115Z,56.90
2018-01-26T16:01:13.055Z,68.20
2018-01-26T16:03:41.111Z,65.03
2018-01-26T16:06:09.047Z,96.67
2018-01-26T16:08:36.985Z,96.10
2018-01-26T16:11:04.906Z,124.80
2018-01-26T16:13:32.858Z,98.00
2018-01-26T16:16:03.648Z,97.87
2018-01-26T16:18:31.726Z,86.97
2018-01-26T16:21:04.345Z,61.63
2018-01-26T16:23:32.311Z,64.10
2018-01-26T16:26:00.242Z,55.07
2018-01-26T16:28:28.186Z,54.90
2018-01-26T16:30:56.118Z,50.93
2018-01-26T16:33:24.047Z,44.40
2018-01-26T16:35:51.976Z,47.83
2018-01-26T16:38:19.918Z,45.97
2018-01-26T16:40:47.852Z,48.17
2018-01-26T16:43:15.841Z,43.67
2018-01-26T16:45:43.809Z,42.50
2018-01-26T16:48:11.755Z,43.80
2018-01-26T16:50:39.693Z,44.20
2018-01-26T16:53:07.636Z,41.20
2018-01-26T16:55:35.597Z,40.00
2018-01-26T16:58:03.575Z,39.47
2018-01-26T17:00:31.541Z,38.87
2018-01-26T17:02:59.517Z,36.17
2018-01-26T17:05:27.442Z,65.40
2018-01-26T17:07:55.385Z,65.47
2018-01-26T17:10:23.310Z,50.73
2018-01-26T17:12:51.303Z,33.83
2018-01-26T17:15:19.189Z,34.27
2018-01-26T17:17:47.154Z,33.70
2018-01-26T17:20:15.097Z,32.30
2018-01-26T17:22:43.047Z,31.93
2018-01-26T17:25:11.002Z,33.97
2018-01-26T17:27:39.083Z,33.67
2018-01-26T17:30:06.991Z,35.53
2018-01-26T17:32:35.014Z,33.17
2018-01-26T17:35:02.955Z,28.80
2018-01-26T17:37:31.013Z,33.40
2018-01-26T17:39:58.913Z,30.10
2018-01-26T17:42:26.867Z,83.90
2018-01-26T17:44:54.807Z,54.73
2018-01-26T17:47:22.726Z,70.20
2018-01-26T17:49:50.685Z,46.20
2018-01-26T17:52:18.590Z,45.53
2018-01-26T17:54:46.606Z,41.33
2018-01-26T17:57:14.523Z,47.00
2018-01-26T17:59:42.465Z,53.87
2018-01-26T18:02:10.410Z,63.40
2018-01-26T18:04:38.353Z,37.37
2018-01-26T18:07:06.307Z,38.90
2018-01-26T18:09:34.546Z,41.83
2018-01-26T18:12:02.473Z,32.30
2018-01-26T18:14:30.423Z,33.27
2018-01-26T18:16:58.358Z,31.80
2018-01-26T18:19:26.323Z,33.93
2018-01-26T18:21:55.048Z,32.27
2018-01-26T18:24:23.899Z,32.47
2018-01-26T18:26:51.836Z,35.83
2018-01-26T18:29:19.774Z,34.80
2018-01-26T18:31:48.055Z,33.63
2018-01-26T18:34:15.998Z,36.33
2018-01-26T18:36:43.941Z,34.90
2018-01-26T18:39:11.897Z,35.73
2018-01-26T18:41:39.857Z,32.20
2018-01-26T18:44:07.787Z,32.33
2018-01-26T18:46:35.742Z,29.77
2018-01-26T18:49:04.014Z,32.07
2018-01-26T18:51:33.045Z,32.40
2018-01-26T18:54:00.961Z,33.80
2018-01-26T18:56:28.925Z,33.97
2018-01-26T18:58:56.937Z,34.47
2018-01-26T19:01:24.873Z,32.90
2018-01-26T19:03:52.879Z,36.07
2018-01-26T19:06:20.808Z,33.27
2018-01-26T19:08:48.750Z,96.20
2018-01-26T19:11:16.750Z,74.20
2018-01-26T19:13:44.674Z,66.63
2018-01-26T19:16:12.594Z,68.20
2018-01-26T19:18:40.552Z,65.33
2018-01-26T19:21:08.482Z,41.50
2018-01-26T19:23:36.451Z,105.83
2018-01-26T19:26:04.422Z,65.10
2018-01-26T19:28:32.332Z,54.80
2018-01-26T19:31:00.302Z,62.63
2018-01-26T19:33:29.206Z,38.77
2018-01-26T19:35:57.113Z,37.90
2018-01-26T19:38:25.059Z,36.60
2018-01-26T19:40:53.003Z,36.77
2018-01-26T19:43:20.924Z,37.73
2018-01-26T19:45:49.326Z,34.70
2018-01-26T19:48:17.243Z,39.50
2018-01-26T19:50:45.180Z,33.87
2018-01-26T19:53:13.102Z,35.50
2018-01-26T19:55:41.849Z,37.23
2018-01-26T19:58:09.796Z,35.30
2018-01-26T20:00:37.776Z,39.00
2018-01-26T20:03:17.401Z,37.80
2018-01-26T20:05:50.944Z,39.37
2018-01-26T20:08:30.207Z,41.90
2018-01-26T20:10:58.351Z,44.23
2018-01-26T20:13:28.069Z,45.50
2018-01-26T20:15:58.637Z,44.73
2018-01-26T20:18:26.674Z,40.00
2018-01-26T20:20:54.596Z,36.03
2018-01-26T20:23:22.539Z,40.83
2018-01-26T20:25:50.453Z,34.80
2018-01-26T20:28:18.434Z,37.57
2018-01-26T20:30:46.376Z,34.43
2018-01-26T20:33:14.310Z,34.90
2018-01-26T20:35:42.258Z,32.90
2018-01-26T20:38:10.261Z,34.57
2018-01-26T20:40:38.189Z,31.63
2018-01-26T20:43:06.118Z,34.27
2018-01-26T20:45:34.133Z,30.70
2018-01-26T20:48:02.066Z,31.00
2018-01-26T20:50:30.018Z,30.47
2018-01-26T20:52:57.952Z,32.80
2018-01-26T20:55:26.283Z,33.40
2018-01-26T20:57:54.310Z,38.00
2018-01-26T21:00:22.233Z,31.90
2018-01-26T21:02:50.185Z,33.27
2018-01-26T21:05:18.150Z,35.97
2018-01-26T21:07:46.332Z,33.70
2018-01-26T21:10:15.581Z,32.77
2018-01-26T21:12:43.538Z,32.83
2018-01-26T21:15:11.539Z,29.37
2018-01-26T21:17:39.534Z,34.17
2018-01-26T21:20:07.508Z,29.57
2018-01-26T21:22:35.471Z,31.53
2018-01-26T21:25:03.413Z,30.83
2018-01-26T21:27:31.369Z,31.00
2018-01-26T21:29:59.315Z,34.00
2018-01-26T21:32:28.113Z,30.97
2018-01-26T21:34:56.103Z,31.27
2018-01-26T21:37:24.109Z,30.93
2018-01-26T21:39:52.210Z,31.30
2018-01-26T21:42:20.187Z,36.70
2018-01-26T21:44:48.118Z,44.70
2018-01-26T21:47:16.053Z,62.03
2018-01-26T21:49:44.028Z,98.73
2018-01-26T21:52:11.985Z,85.90
2018-01-26T21:54:40.040Z,75.80
2018-01-26T21:57:07.978Z,68.50
2018-01-26T21:59:35.932Z,65.40
2018-01-26T22:02:04.792Z,76.27
2018-01-26T22:04:38.394Z,48.57
2018-01-26T22:07:12.107Z,61.57
2018-01-26T22:09:40.082Z,50.27
2018-01-26T22:12:08.117Z,49.07
2018-01-26T22:14:36.135Z,40.47
2018-01-26T22:17:04.991Z,39.43
2018-01-26T22:19:33.054Z,32.80
2018-01-26T22:22:00.977Z,38.00
2018-01-26T22:24:28.885Z,35.20
2018-01-26T22:26:56.825Z,29.07
2018-01-26T22:29:24.898Z,30.37
2018-01-26T22:31:52.849Z,26.43
2018-01-26T22:34:20.969Z,28.40
2018-01-26T22:36:48.905Z,43.97
2018-01-26T22:39:16.867Z,47.83
2018-01-26T22:41:44.943Z,37.23
2018-01-26T22:44:12.898Z,27.03
2018-01-26T22:46:41.177Z,27.00
2018-01-26T22:49:09.326Z,27.67
2018-01-26T22:51:37.254Z,27.10
2018-01-26T22:54:05.235Z,26.30
2018-01-26T22:56:33.199Z,29.80
2018-01-26T22:59:01.140Z,27.50
2018-01-26T23:01:29.157Z,28.67
2018-01-26T23:03:57.146Z,30.27
2018-01-26T23:06:25.078Z,31.23
2018-01-26T23:08:53.178Z,30.53
2018-01-26T23:11:21.109Z,30.40
2018-01-26T23:13:49.063Z,29.77
2018-01-26T23:16:16.975Z,33.50
2018-01-26T23:18:44.911Z,34.50
2018-01-26T23:21:12.866Z,31.47
2018-01-26T23:23:40.818Z,32.07
2018-01-26T23:26:08.774Z,35.87
2018-01-26T23:28:36.737Z,32.27
2018-01-26T23:31:04.713Z,35.87
2018-01-26T23:33:32.760Z,36.00
2018-01-26T23:36:00.670Z,35.23
2018-01-26T23:38:28.832Z,37.60
2018-01-26T23:40:56.853Z,36.17
2018-01-26T23:43:24.800Z,35.70
2018-01-26T23:45:52.739Z,37.20
2018-01-26T23:48:20.696Z,36.90
2018-01-26T23:50:48.637Z,35.77
2018-01-26T23:53:16.712Z,34.97
2018-01-26T23:55:45.261Z,35.87
2018-01-26T23:58:13.348Z,35.90
